Time,TemperatureF,DewpointF,PressureIn,WindDirection,WindDirectionDegrees,WindSpeedMPH,WindSpeedGustMPH,Humidity,HourlyPrecipIn,Conditions,Clouds,dailyrainin,SoftwareType,DateUTC
2013-02-16 00:14:00,23.7,18.0,30.14,WNW,296,1.0,-999.0,78,-99.99,,,0.00,weatherlink.com 1.10,2013-02-16 05:14:00,
2013-02-16 00:29:00,23.8,18.0,30.14,WNW,296,1.0,-999.0,78,-99.99,,,0.00,weatherlink.com 1.10,2013-02-16 05:29:00,
2013-02-16 00:44:00,23.3,18.0,30.14,WNW,296,4.0,-999.0,80,-99.99,,,0.00,weatherlink.com 1.10,2013-02-16 05:44:00,
2013-02-16 00:59:00,23.3,18.0,30.13,WNW,296,2.0,-999.0,81,-99.99,,,0.00,weatherlink.com 1.10,2013-02-16 05:59:00,
2013-02-16 01:14:00,23.1,18.0,30.13,WNW,296,4.0,-999.0,81,-99.99,,,0.00,weatherlink.com 1.10,2013-02-16 06:14:00,
2013-02-16 01:29:00,22.9,18.0,30.12,WNW,296,0.0,-999.0,82,-99.99,,,0.00,weatherlink.com 1.10,2013-02-16 06:29:00,
2013-02-16 01:44:00,22.6,18.0,30.12,WNW,296,0.0,-999.0,83,-99.99,,,0.00,weatherlink.com 1.10,2013-02-16 06:44:00,
2013-02-16 01:59:00,22.1,18.0,30.12,WNW,296,0.0,-999.0,84,-99.99,,,0.00,weatherlink.com 1.10,2013-02-16 06:59:00,
2013-02-16 02:14:00,21.8,18.0,30.12,WNW,296,0.0,-999.0,85,-99.99,,,0.00,weatherlink.com 1.10,2013-02-16 07:14:00,
2013-02-16 02:29:00,21.6,18.0,30.12,WNW,296,0.0,-999.0,86,-99.99,,,0.00,weatherlink.com 1.10,2013-02-16 07:29:00,
2013-02-16 02:44:00,21.6,18.0,30.11,WNW,296,0.0,-999.0,87,-99.99,,,0.00,weatherlink.com 1.10,2013-02-16 07:44:00,
2013-02-16 02:59:00,21.7,18.0,30.11,WNW,296,0.0,-999.0,87,-99.99,,,0.00,weatherlink.com 1.10,2013-02-16 07:59:00,
2013-02-16 03:15:00,21.8,19.0,30.11,WNW,296,0.0,-999.0,87,-99.99,,,0.00,weatherlink.com 1.10,2013-02-16 08:15:00,
2013-02-16 03:30:00,21.9,19.0,30.10,WNW,296,0.0,-999.0,87,-99.99,,,0.00,weatherlink.com 1.10,2013-02-16 08:30:00,
2013-02-16 03:45:00,22.0,19.0,30.10,WNW,296,2.0,-999.0,87,-99.99,,,0.00,weatherlink.com 1.10,2013-02-16 08:45:00,
2013-02-16 04:00:00,22.2,19.0,30.09,WNW,296,2.0,-999.0,87,-99.99,,,0.00,weatherlink.com 1.10,2013-02-16 09:00:00,
2013-02-16 04:15:00,22.2,19.0,30.09,WNW,296,0.0,-999.0,87,-99.99,,,0.00,weatherlink.com 1.10,2013-02-16 09:15:00,
2013-02-16 04:30:00,22.3,19.0,30.09,WNW,296,1.0,-999.0,88,-99.99,,,0.00,weatherlink.com 1.10,2013-02-16 09:30:00,
2013-02-16 04:45:00,22.5,19.0,30.08,WNW,296,0.0,-999.0,87,-99.99,,,0.00,weatherlink.com 1.10,2013-02-16 09:45:00,
2013-02-16 05:00:00,22.5,20.0,30.08,WNW,296,0.0,-999.0,88,-99.99,,,0.00,weatherlink.com 1.10,2013-02-16 10:00:00,
2013-02-16 05:15:00,22.5,19.0,30.08,WNW,296,2.0,-999.0,87,-99.99,,,0.00,weatherlink.com 1.10,2013-02-16 10:15:00,
2013-02-16 05:30:00,22.5,20.0,30.08,WNW,296,0.0,-999.0,88,-99.99,,,0.00,weatherlink.com 1.10,2013-02-16 10:30:00,
2013-02-16 05:45:00,22.7,19.0,30.07,WNW,296,0.0,-999.0,87,-99.99,,,0.00,weatherlink.com 1.10,2013-02-16 10:45:00,
2013-02-16 06:01:00,22.5,19.0,30.07,WNW,296,0.0,-999.0,87,-99.99,,,0.00,weatherlink.com 1.10,2013-02-16 11:01:00,
2013-02-16 06:15:00,22.6,20.0,30.07,WNW,296,0.0,-999.0,88,-99.99,,,0.00,weatherlink.com 1.10,2013-02-16 11:15:00,
2013-02-16 06:31:00,22.6,20.0,30.07,WNW,296,0.0,-999.0,88,-99.99,,,0.00,weatherlink.com 1.10,2013-02-16 11:31:00,
2013-02-16 06:46:00,22.3,19.0,30.07,WNW,296,0.0,-999.0,88,-99.99,,,0.00,weatherlink.com 1.10,2013-02-16 11:46:00,
2013-02-16 07:01:00,22.1,19.0,30.07,WNW,296,0.0,-999.0,88,-99.99,,,0.00,weatherlink.com 1.10,2013-02-16 12:01:00,
2013-02-16 07:16:00,21.8,19.0,30.07,WNW,296,0.0,-999.0,89,-99.99,,,0.00,weatherlink.com 1.10,2013-02-16 12:16:00,
2013-02-16 07:31:00,21.9,20.0,30.07,WNW,296,0.0,-999.0,90,-99.99,,,0.00,weatherlink.com 1.10,2013-02-16 12:31:00,
2013-02-16 07:46:00,22.1,20.0,30.07,WNW,296,0.0,-999.0,90,-99.99,,,0.00,weatherlink.com 1.10,2013-02-16 12:46:00,
2013-02-16 08:01:00,22.3,20.0,30.07,WNW,296,0.0,-999.0,90,-99.99,,,0.00,weatherlink.com 1.10,2013-02-16 13:01:00,
2013-02-16 08:16:00,22.5,20.0,30.07,WNW,296,0.0,-999.0,90,-99.99,,,0.00,weatherlink.com 1.10,2013-02-16 13:16:00,
2013-02-16 08:31:00,23.1,21.0,30.07,WNW,296,0.0,-999.0,90,-99.99,,,0.00,weatherlink.com 1.10,2013-02-16 13:31:00,
2013-02-16 08:47:00,23.9,21.0,30.07,WNW,296,6.0,-999.0,88,-99.99,,,0.00,weatherlink.com 1.10,2013-02-16 13:47:00,
2013-02-16 09:01:00,24.2,21.0,30.07,WNW,296,2.0,-999.0,87,-99.99,,,0.00,weatherlink.com 1.10,2013-02-16 14:01:00,
2013-02-16 09:17:00,24.7,21.0,30.07,WNW,296,6.0,-999.0,86,-99.99,,,0.00,weatherlink.com 1.10,2013-02-16 14:17:00,
2013-02-16 09:32:00,24.9,21.0,30.06,WNW,287,5.0,-999.0,85,-99.99,,,0.00,weatherlink.com 1.10,2013-02-16 14:32:00,
2013-02-16 09:47:00,25.1,21.0,30.06,WNW,292,9.0,-999.0,85,-99.99,,,0.00,weatherlink.com 1.10,2013-02-16 14:47:00,
2013-02-16 10:02:00,24.8,21.0,30.06,WNW,293,12.0,-999.0,84,-99.99,,,0.00,weatherlink.com 1.10,2013-02-16 15:02:00,
2013-02-16 10:17:00,24.9,20.0,30.06,WNW,283,11.0,-999.0,83,-99.99,,,0.00,weatherlink.com 1.10,2013-02-16 15:17:00,
2013-02-16 10:32:00,25.7,20.0,30.06,WNW,287,12.0,-999.0,80,-99.99,,,0.00,weatherlink.com 1.10,2013-02-16 15:32:00,
2013-02-16 10:47:00,25.3,19.0,30.06,WNW,297,7.0,-999.0,78,-99.99,,,0.00,weatherlink.com 1.10,2013-02-16 15:47:00,
2013-02-16 11:03:00,26.2,19.0,30.06,West,280,18.0,-999.0,74,-99.99,,,0.00,weatherlink.com 1.10,2013-02-16 16:03:00,
2013-02-16 11:18:00,25.4,20.0,30.06,West,273,12.0,-999.0,79,-99.99,,,0.00,weatherlink.com 1.10,2013-02-16 16:18:00,
2013-02-16 11:34:00,25.1,21.0,30.06,NW,307,15.0,-999.0,83,-99.99,,,0.00,weatherlink.com 1.10,2013-02-16 16:34:00,
2013-02-16 11:47:00,24.7,20.0,30.06,WNW,292,15.0,-999.0,81,-99.99,,,0.00,weatherlink.com 1.10,2013-02-16 16:47:00,
2013-02-16 12:03:00,26.0,19.0,30.06,WNW,292,14.0,-999.0,76,-99.99,,,0.00,weatherlink.com 1.10,2013-02-16 17:03:00,
2013-02-16 12:18:00,26.3,20.0,30.05,West,269,14.0,-999.0,76,-99.99,,,0.00,weatherlink.com 1.10,2013-02-16 17:18:00,
2013-02-16 12:48:00,23.6,20.0,30.05,WNW,294,15.0,-999.0,86,-99.99,,,0.00,weatherlink.com 1.10,2013-02-16 17:48:00,
2013-02-16 13:03:00,24.3,20.0,30.04,WNW,283,11.0,-999.0,84,-99.99,,,0.00,weatherlink.com 1.10,2013-02-16 18:03:00,
2013-02-16 13:18:00,25.3,19.0,30.04,WNW,282,15.0,-999.0,77,-99.99,,,0.00,weatherlink.com 1.10,2013-02-16 18:18:00,
2013-02-16 13:33:00,24.8,19.0,30.04,West,276,14.0,-999.0,78,-99.99,,,0.00,weatherlink.com 1.10,2013-02-16 18:33:00,
2013-02-16 13:48:00,24.3,18.0,30.04,West,270,21.0,-999.0,76,-99.99,,,0.00,weatherlink.com 1.10,2013-02-16 18:48:00,
2013-02-16 14:03:00,24.3,18.0,30.03,WSW,257,12.0,-999.0,76,-99.99,,,0.00,weatherlink.com 1.10,2013-02-16 19:03:00,
2013-02-16 14:19:00,24.3,18.0,30.04,West,276,11.0,-999.0,77,-99.99,,,0.00,weatherlink.com 1.10,2013-02-16 19:19:00,
2013-02-16 14:33:00,23.7,17.0,30.04,West,280,8.0,-999.0,75,-99.99,,,0.00,weatherlink.com 1.10,2013-02-16 19:33:00,
2013-02-16 14:49:00,23.8,15.0,30.04,West,272,11.0,-999.0,69,-99.99,,,0.00,weatherlink.com 1.10,2013-02-16 19:49:00,
2013-02-16 15:04:00,24.5,15.0,30.04,WNW,290,19.0,-999.0,67,-99.99,,,0.00,weatherlink.com 1.10,2013-02-16 20:04:00,
2013-02-16 15:19:00,23.8,16.0,30.04,WNW,283,12.0,-999.0,73,-99.99,,,0.00,weatherlink.com 1.10,2013-02-16 20:19:00,
2013-02-16 15:34:00,23.7,15.0,30.04,WNW,283,11.0,-999.0,69,-99.99,,,0.00,weatherlink.com 1.10,2013-02-16 20:34:00,
2013-02-16 15:49:00,23.5,18.0,30.05,WNW,294,11.0,-999.0,79,-99.99,,,0.00,weatherlink.com 1.10,2013-02-16 20:49:00,
2013-02-16 16:04:00,22.1,19.0,30.05,West,280,11.0,-999.0,86,-99.99,,,0.00,weatherlink.com 1.10,2013-02-16 21:04:00,
2013-02-16 16:19:00,21.5,18.0,30.05,WNW,298,9.0,-999.0,86,-99.99,,,0.00,weatherlink.com 1.10,2013-02-16 21:19:00,
2013-02-16 16:34:00,21.9,18.0,30.06,WNW,286,15.0,-999.0,85,-99.99,,,0.00,weatherlink.com 1.10,2013-02-16 21:34:00,
2013-02-16 16:50:00,22.2,16.0,30.06,West,281,16.0,-999.0,77,-99.99,,,0.00,weatherlink.com 1.10,2013-02-16 21:50:00,
2013-02-16 17:04:00,22.0,14.0,30.06,WNW,292,8.0,-999.0,72,-99.99,,,0.00,weatherlink.com 1.10,2013-02-16 22:04:00,
2013-02-16 17:20:00,22.3,14.0,30.07,WNW,302,20.0,-999.0,70,-99.99,,,0.00,weatherlink.com 1.10,2013-02-16 22:20:00,
2013-02-16 17:39:00,22.0,13.0,30.07,West,281,15.0,-999.0,67,-99.99,,,0.00,weatherlink.com 1.10,2013-02-16 22:39:00,
2013-02-16 17:50:00,21.8,11.0,30.07,WNW,287,16.0,-999.0,64,-99.99,,,0.00,weatherlink.com 1.10,2013-02-16 22:50:00,
2013-02-16 18:05:00,21.3,13.0,30.08,WNW,286,18.0,-999.0,69,-99.99,,,0.00,weatherlink.com 1.10,2013-02-16 23:05:00,
2013-02-16 18:20:00,20.8,12.0,30.09,WNW,295,8.0,-999.0,70,-99.99,,,0.00,weatherlink.com 1.10,2013-02-16 23:20:00,
2013-02-16 18:35:00,20.5,11.0,30.09,WNW,301,15.0,-999.0,68,-99.99,,,0.00,weatherlink.com 1.10,2013-02-16 23:35:00,
2013-02-16 18:50:00,20.1,9.0,30.10,WNW,298,16.0,-999.0,63,-99.99,,,0.00,weatherlink.com 1.10,2013-02-16 23:50:00,
2013-02-16 19:05:00,20.1,10.0,30.10,WNW,282,12.0,-999.0,64,-99.99,,,0.00,weatherlink.com 1.10,2013-02-17 00:05:00,
2013-02-16 19:20:00,19.9,9.0,30.11,West,274,16.0,-999.0,64,-99.99,,,0.00,weatherlink.com 1.10,2013-02-17 00:20:00,
2013-02-16 19:35:00,19.6,9.0,30.11,WNW,282,12.0,-999.0,64,-99.99,,,0.00,weatherlink.com 1.10,2013-02-17 00:35:00,
2013-02-16 19:51:00,19.4,9.0,30.11,West,277,7.0,-999.0,63,-99.99,,,0.00,weatherlink.com 1.10,2013-02-17 00:51:00,
2013-02-16 20:05:00,19.4,8.0,30.11,NW,305,17.0,-999.0,62,-99.99,,,0.00,weatherlink.com 1.10,2013-02-17 01:05:00,
2013-02-16 20:20:00,19.3,8.0,30.11,NW,308,14.0,-999.0,61,-99.99,,,0.00,weatherlink.com 1.10,2013-02-17 01:20:00,
2013-02-16 20:36:00,19.1,8.0,30.11,West,278,20.0,-999.0,61,-99.99,,,0.00,weatherlink.com 1.10,2013-02-17 01:36:00,
2013-02-16 20:51:00,18.9,8.0,30.11,WNW,287,7.0,-999.0,63,-99.99,,,0.00,weatherlink.com 1.10,2013-02-17 01:51:00,
2013-02-16 21:06:00,18.8,8.0,30.11,WNW,288,14.0,-999.0,62,-99.99,,,0.00,weatherlink.com 1.10,2013-02-17 02:06:00,
2013-02-16 21:21:00,18.6,7.0,30.12,WNW,289,14.0,-999.0,62,-99.99,,,0.00,weatherlink.com 1.10,2013-02-17 02:21:00,
2013-02-16 21:36:00,18.2,8.0,30.12,WNW,297,9.0,-999.0,65,-99.99,,,0.00,weatherlink.com 1.10,2013-02-17 02:36:00,
2013-02-16 21:51:00,17.9,8.0,30.12,West,280,12.0,-999.0,66,-99.99,,,0.00,weatherlink.com 1.10,2013-02-17 02:51:00,
2013-02-16 22:06:00,17.6,9.0,30.12,West,280,8.0,-999.0,68,-99.99,,,0.00,weatherlink.com 1.10,2013-02-17 03:06:00,
2013-02-16 22:21:00,17.4,9.0,30.12,West,281,11.0,-999.0,69,-99.99,,,0.00,weatherlink.com 1.10,2013-02-17 03:21:00,
2013-02-16 22:36:00,17.3,9.0,30.12,West,281,9.0,-999.0,70,-99.99,,,0.00,weatherlink.com 1.10,2013-02-17 03:36:00,
2013-02-16 22:51:00,17.2,9.0,30.12,WNW,296,9.0,-999.0,71,-99.99,,,0.00,weatherlink.com 1.10,2013-02-17 03:51:00,
2013-02-16 23:06:00,17.1,9.0,30.12,West,281,9.0,-999.0,71,-99.99,,,0.00,weatherlink.com 1.10,2013-02-17 04:06:00,
2013-02-16 23:22:00,16.8,9.0,30.12,WNW,286,9.0,-999.0,72,-99.99,,,0.00,weatherlink.com 1.10,2013-02-17 04:22:00,
2013-02-16 23:37:00,16.6,9.0,30.11,WNW,288,8.0,-999.0,73,-99.99,,,0.00,weatherlink.com 1.10,2013-02-17 04:37:00,
2013-02-16 23:52:00,16.3,10.0,30.11,West,279,11.0,-999.0,75,-99.99,,,0.00,weatherlink.com 1.10,2013-02-17 04:52:00,